logo
Search for airport 
image banner adimage banner adimage banner ad
image banner ad

MRQP - Quepos

Located in Puntarenas,Conocido Como La Managua, Costa Rica

ICAO - MRQP, IATA - XQP

Data provided by Airmate  

General information

Coordinates: N9°26'35" W84°7'48"
Elevation is 85 feet MSL.
 
View others Airports in Puntarenas

Operational data

Special qualification required
Current time UTC:
Current local time:
Weather at : MRPV - Tobias Bolanos Intl ( 57 km )
TAF: MRPV 150525Z 1506/1606 10015KT 9999 FEW045 TX30/1519Z TN21/1511Z TEMPO 1514/1520 10015G25KT
View NOTAMs / SUP AIP / TFR affecting this airport [VIEW]
Communications frequencies: [VIEW]

Runways:

RWY identifierQFULength (ft)Width (ft)SurfaceLDA (ft)
0441°360959ASP
22221°360959ASP

Airport contact information

Address: Puntarenas,Conocido Como La Managua Costa Rica

Satellite view of MRQP